sensor_id;sensor_type;location;lat;lon;timestamp;pressure;altitude;pressure_sealevel;temperature;humidity
39083;BME280;24834;44.444;26.098;2024-01-15T05:17:04;99800.31;;;2.92;
39083;BME280;24834;44.444;26.098;2024-01-15T05:23:13;99795.63;;;2.78;
39083;BME280;24834;44.444;26.098;2024-01-15T05:29:15;99799.97;;;2.72;
39083;BME280;24834;44.444;26.098;2024-01-15T05:35:19;99786.66;;;2.69;
39083;BME280;24834;44.444;26.098;2024-01-15T05:41:21;99790.38;;;2.73;
39083;BME280;24834;44.444;26.098;2024-01-15T05:47:24;99781.41;;;2.80;
39083;BME280;24834;44.444;26.098;2024-01-15T05:53:27;99787.69;;;2.84;
39083;BME280;24834;44.444;26.098;2024-01-15T05:59:29;99778.66;;;2.87;
39083;BME280;24834;44.444;26.098;2024-01-15T06:05:36;99775.88;;;2.93;
39083;BME280;24834;44.444;26.098;2024-01-15T06:11:38;99772.50;;;2.93;
39083;BME280;24834;44.444;26.098;2024-01-15T06:17:41;99765.31;;;3.00;
39083;BME280;24834;44.444;26.098;2024-01-15T06:23:45;99768.25;;;3.04;
39083;BME280;24834;44.444;26.098;2024-01-15T06:29:48;99775.22;;;3.20;
39083;BME280;24834;44.444;26.098;2024-01-15T06:35:51;99774.53;;;3.29;
39083;BME280;24834;44.444;26.098;2024-01-15T06:41:55;99771.16;;;3.07;
39083;BME280;24834;44.444;26.098;2024-01-15T06:47:57;99786.44;;;2.87;
39083;BME280;24834;44.444;26.098;2024-01-15T06:54:02;99773.19;;;3.05;
39083;BME280;24834;44.444;26.098;2024-01-15T07:00:06;99768.63;;;3.12;
39083;BME280;24834;44.444;26.098;2024-01-15T07:06:11;99772.31;;;3.60;
39083;BME280;24834;44.444;26.098;2024-01-15T07:12:14;99774.53;;;3.73;
39083;BME280;24834;44.444;26.098;2024-01-15T07:18:18;99780.34;;;3.80;
39083;BME280;24834;44.444;26.098;2024-01-15T07:24:20;99775.41;;;4.05;
39083;BME280;24834;44.444;26.098;2024-01-15T07:30:23;99771.53;;;4.08;
39083;BME280;24834;44.444;26.098;2024-01-15T07:36:27;99782.84;;;4.23;
39083;BME280;24834;44.444;26.098;2024-01-15T07:42:29;99794.84;;;4.56;
39083;BME280;24834;44.444;26.098;2024-01-15T07:48:32;99787.19;;;4.82;
39083;BME280;24834;44.444;26.098;2024-01-15T07:54:35;99771.13;;;4.95;
39083;BME280;24834;44.444;26.098;2024-01-15T08:00:39;99783.41;;;4.99;
39083;BME280;24834;44.444;26.098;2024-01-15T08:06:43;99779.28;;;5.03;
39083;BME280;24834;44.444;26.098;2024-01-15T08:12:47;99778.06;;;4.79;
39083;BME280;24834;44.444;26.098;2024-01-15T08:18:53;99786.25;;;4.98;
39083;BME280;24834;44.444;26.098;2024-01-15T08:24:56;99774.38;;;5.17;
39083;BME280;24834;44.444;26.098;2024-01-15T08:30:59;99773.69;;;5.37;
39083;BME280;24834;44.444;26.098;2024-01-15T08:37:03;99771.22;;;5.82;
39083;BME280;24834;44.444;26.098;2024-01-15T08:43:05;99744.63;;;6.26;
39083;BME280;24834;44.444;26.098;2024-01-15T08:49:11;99753.66;;;6.79;
39083;BME280;24834;44.444;26.098;2024-01-15T08:55:13;99744.50;;;6.91;
39083;BME280;24834;44.444;26.098;2024-01-15T09:01:16;99734.28;;;7.00;
39083;BME280;24834;44.444;26.098;2024-01-15T09:07:20;99730.59;;;7.50;
39083;BME280;24834;44.444;26.098;2024-01-15T09:13:22;99722.31;;;7.77;
39083;BME280;24834;44.444;26.098;2024-01-15T09:19:26;99712.00;;;7.90;
39083;BME280;24834;44.444;26.098;2024-01-15T09:25:30;99700.91;;;8.04;
39083;BME280;24834;44.444;26.098;2024-01-15T09:31:47;99679.13;;;8.08;
39083;BME280;24834;44.444;26.098;2024-01-15T09:37:49;99668.44;;;8.05;
39083;BME280;24834;44.444;26.098;2024-01-15T09:43:51;99664.03;;;8.24;
39083;BME280;24834;44.444;26.098;2024-01-15T09:49:54;99636.63;;;8.40;
39083;BME280;24834;44.444;26.098;2024-01-15T09:55:58;99633.16;;;8.68;
39083;BME280;24834;44.444;26.098;2024-01-15T10:02:01;99619.19;;;8.91;
39083;BME280;24834;44.444;26.098;2024-01-15T10:08:09;99598.72;;;9.45;
39083;BME280;24834;44.444;26.098;2024-01-15T10:14:13;99598.88;;;9.80;
39083;BME280;24834;44.444;26.098;2024-01-15T10:20:15;99586.31;;;9.91;
39083;BME280;24834;44.444;26.098;2024-01-15T10:26:17;99583.03;;;9.72;
39083;BME280;24834;44.444;26.098;2024-01-15T10:32:21;99575.81;;;9.77;
39083;BME280;24834;44.444;26.098;2024-01-15T10:38:27;99565.44;;;9.86;
39083;BME280;24834;44.444;26.098;2024-01-15T10:44:30;99574.56;;;10.02;
39083;BME280;24834;44.444;26.098;2024-01-15T10:50:41;99560.66;;;10.51;
39083;BME280;24834;44.444;26.098;2024-01-15T10:56:46;99545.44;;;10.48;
39083;BME280;24834;44.444;26.098;2024-01-15T11:02:51;99543.19;;;10.33;
39083;BME280;24834;44.444;26.098;2024-01-15T11:08:54;99533.69;;;10.59;
39083;BME280;24834;44.444;26.098;2024-01-15T11:15:02;99510.66;;;10.43;
39083;BME280;24834;44.444;26.098;2024-01-15T11:27:42;99500.34;;;10.68;
39083;BME280;24834;44.444;26.098;2024-01-15T11:33:51;99507.31;;;10.28;
39083;BME280;24834;44.444;26.098;2024-01-15T11:40:02;99490.00;;;11.03;
39083;BME280;24834;44.444;26.098;2024-01-15T11:46:11;99483.53;;;11.09;
39083;BME280;24834;44.444;26.098;2024-01-15T11:52:20;99484.59;;;10.46;
39083;BME280;24834;44.444;26.098;2024-01-15T11:58:25;99478.53;;;10.46;
39083;BME280;24834;44.444;26.098;2024-01-15T12:04:32;99457.81;;;10.44;
39083;BME280;24834;44.444;26.098;2024-01-15T12:10:35;99459.25;;;10.50;
39083;BME280;24834;44.444;26.098;2024-01-15T12:16:44;99467.13;;;10.50;
39083;BME280;24834;44.444;26.098;2024-01-15T12:22:47;99440.41;;;10.79;
39083;BME280;24834;44.444;26.098;2024-01-15T12:29:02;99429.16;;;10.87;
39083;BME280;24834;44.444;26.098;2024-01-15T12:35:09;99419.84;;;10.81;
39083;BME280;24834;44.444;26.098;2024-01-15T12:41:15;99406.03;;;11.06;
39083;BME280;24834;44.444;26.098;2024-01-15T12:47:19;99402.38;;;11.24;
39083;BME280;24834;44.444;26.098;2024-01-15T12:53:24;99376.94;;;11.03;
39083;BME280;24834;44.444;26.098;2024-01-15T12:59:26;99383.38;;;10.97;
39083;BME280;24834;44.444;26.098;2024-01-15T13:05:31;99380.56;;;10.84;
39083;BME280;24834;44.444;26.098;2024-01-15T13:11:38;99365.78;;;10.58;
39083;BME280;24834;44.444;26.098;2024-01-15T13:17:41;99350.03;;;10.66;
39083;BME280;24834;44.444;26.098;2024-01-15T13:23:46;99340.44;;;10.53;
39083;BME280;24834;44.444;26.098;2024-01-15T13:29:48;99344.78;;;10.66;
39083;BME280;24834;44.444;26.098;2024-01-15T13:35:53;99342.81;;;10.41;
39083;BME280;24834;44.444;26.098;2024-01-15T13:41:57;99344.03;;;10.35;
39083;BME280;24834;44.444;26.098;2024-01-15T13:48:00;99338.22;;;10.24;
39083;BME280;24834;44.444;26.098;2024-01-15T13:54:03;99339.16;;;10.20;
39083;BME280;24834;44.444;26.098;2024-01-15T14:00:13;99340.34;;;9.92;
39083;BME280;24834;44.444;26.098;2024-01-15T14:06:24;99310.72;;;9.55;
39083;BME280;24834;44.444;26.098;2024-01-15T14:12:29;99335.16;;;9.78;
39083;BME280;24834;44.444;26.098;2024-01-15T14:18:32;99325.94;;;9.89;
39083;BME280;24834;44.444;26.098;2024-01-15T14:24:36;99316.94;;;9.59;
39083;BME280;24834;44.444;26.098;2024-01-15T14:30:39;99312.03;;;9.44;
39083;BME280;24834;44.444;26.098;2024-01-15T14:36:41;99309.47;;;9.53;
39083;BME280;24834;44.444;26.098;2024-01-15T14:42:52;99302.25;;;9.58;
39083;BME280;24834;44.444;26.098;2024-01-15T14:48:54;99291.63;;;9.63;
39083;BME280;24834;44.444;26.098;2024-01-15T14:54:57;99294.75;;;9.65;
39083;BME280;24834;44.444;26.098;2024-01-15T15:00:59;99302.09;;;9.77;
39083;BME280;24834;44.444;26.098;2024-01-15T15:07:06;99297.38;;;9.29;
39083;BME280;24834;44.444;26.098;2024-01-15T15:13:09;99294.47;;;9.17;
39083;BME280;24834;44.444;26.098;2024-01-15T15:19:12;99286.91;;;9.02;
39083;BME280;24834;44.444;26.098;2024-01-15T15:25:15;99301.31;;;9.05;
39083;BME280;24834;44.444;26.098;2024-01-15T15:31:19;99294.31;;;9.14;
39083;BME280;24834;44.444;26.098;2024-01-15T15:37:21;99281.09;;;9.19;
39083;BME280;24834;44.444;26.098;2024-01-15T15:43:26;99279.31;;;9.28;
39083;BME280;24834;44.444;26.098;2024-01-15T15:49:29;99276.56;;;8.97;
39083;BME280;24834;44.444;26.098;2024-01-15T15:55:34;99276.28;;;8.85;
39083;BME280;24834;44.444;26.098;2024-01-15T16:07:37;99265.00;;;8.98;
39083;BME280;24834;44.444;26.098;2024-01-15T16:13:40;99261.44;;;8.94;
39083;BME280;24834;44.444;26.098;2024-01-15T16:19:43;99254.63;;;8.93;
39083;BME280;24834;44.444;26.098;2024-01-15T16:25:44;99248.31;;;8.94;
39083;BME280;24834;44.444;26.098;2024-01-15T16:31:47;99257.44;;;8.97;
39083;BME280;24834;44.444;26.098;2024-01-15T16:37:49;99243.06;;;8.94;
39083;BME280;24834;44.444;26.098;2024-01-15T16:43:54;99241.31;;;8.89;
39083;BME280;24834;44.444;26.098;2024-01-15T16:49:56;99257.91;;;8.71;
39083;BME280;24834;44.444;26.098;2024-01-15T16:55:59;99251.63;;;8.72;
39083;BME280;24834;44.444;26.098;2024-01-15T17:02:02;99254.16;;;8.77;
39083;BME280;24834;44.444;26.098;2024-01-15T17:08:05;99261.31;;;8.85;
39083;BME280;24834;44.444;26.098;2024-01-15T17:14:09;99261.72;;;8.79;
39083;BME280;24834;44.444;26.098;2024-01-15T17:20:13;99233.16;;;8.91;
39083;BME280;24834;44.444;26.098;2024-01-15T17:26:15;99235.22;;;8.94;
39083;BME280;24834;44.444;26.098;2024-01-15T17:32:18;99236.34;;;9.02;
39083;BME280;24834;44.444;26.098;2024-01-15T17:38:20;99230.66;;;8.86;
39083;BME280;24834;44.444;26.098;2024-01-15T17:44:22;99229.38;;;8.97;
39083;BME280;24834;44.444;26.098;2024-01-15T17:50:26;99223.72;;;9.04;
39083;BME280;24834;44.444;26.098;2024-01-15T17:56:30;99218.31;;;9.00;
39083;BME280;24834;44.444;26.098;2024-01-15T18:02:33;99214.91;;;9.13;
39083;BME280;24834;44.444;26.098;2024-01-15T18:08:37;99174.72;;;8.90;
39083;BME280;24834;44.444;26.098;2024-01-15T18:14:41;99186.09;;;9.22;
39083;BME280;24834;44.444;26.098;2024-01-15T18:20:46;99184.75;;;9.24;
39083;BME280;24834;44.444;26.098;2024-01-15T18:26:50;99199.47;;;9.34;
39083;BME280;24834;44.444;26.098;2024-01-15T18:32:52;99185.28;;;9.35;
39083;BME280;24834;44.444;26.098;2024-01-15T18:38:57;99187.09;;;9.26;
39083;BME280;24834;44.444;26.098;2024-01-15T18:45:09;99195.94;;;9.38;
39083;BME280;24834;44.444;26.098;2024-01-15T18:51:23;99182.78;;;9.30;
39083;BME280;24834;44.444;26.098;2024-01-15T18:57:25;99174.66;;;9.40;
39083;BME280;24834;44.444;26.098;2024-01-15T19:03:29;99164.03;;;9.45;
39083;BME280;24834;44.444;26.098;2024-01-15T19:09:31;99158.66;;;9.42;
39083;BME280;24834;44.444;26.098;2024-01-15T19:15:33;99152.06;;;9.44;
39083;BME280;24834;44.444;26.098;2024-01-15T19:21:35;99144.34;;;9.48;
39083;BME280;24834;44.444;26.098;2024-01-15T19:27:39;99136.41;;;9.39;
39083;BME280;24834;44.444;26.098;2024-01-15T19:33:46;99112.69;;;9.22;
39083;BME280;24834;44.444;26.098;2024-01-15T19:39:48;99099.66;;;9.30;
39083;BME280;24834;44.444;26.098;2024-01-15T19:45:51;99094.34;;;9.22;
39083;BME280;24834;44.444;26.098;2024-01-15T19:51:54;99091.94;;;9.25;
39083;BME280;24834;44.444;26.098;2024-01-15T19:57:56;99041.94;;;9.00;
39083;BME280;24834;44.444;26.098;2024-01-15T20:03:58;99064.56;;;9.18;
39083;BME280;24834;44.444;26.098;2024-01-15T20:10:01;99063.84;;;9.04;
39083;BME280;24834;44.444;26.098;2024-01-15T20:16:15;99056.41;;;8.75;
39083;BME280;24834;44.444;26.098;2024-01-15T20:22:16;99051.94;;;8.75;
39083;BME280;24834;44.444;26.098;2024-01-15T20:28:21;99037.28;;;8.97;
39083;BME280;24834;44.444;26.098;2024-01-15T20:34:24;99036.09;;;9.03;
39083;BME280;24834;44.444;26.098;2024-01-15T20:40:26;99015.66;;;9.13;
39083;BME280;24834;44.444;26.098;2024-01-15T20:46:28;98987.84;;;9.26;
39083;BME280;24834;44.444;26.098;2024-01-15T20:52:30;98968.78;;;9.20;
39083;BME280;24834;44.444;26.098;2024-01-15T20:58:33;98964.59;;;9.11;
39083;BME280;24834;44.444;26.098;2024-01-15T21:04:36;98969.41;;;8.86;
39083;BME280;24834;44.444;26.098;2024-01-15T21:10:42;98965.53;;;8.62;
39083;BME280;24834;44.444;26.098;2024-01-15T21:16:46;98970.13;;;8.78;
39083;BME280;24834;44.444;26.098;2024-01-15T21:22:51;98971.19;;;8.77;
39083;BME280;24834;44.444;26.098;2024-01-15T21:28:54;98979.06;;;8.55;
39083;BME280;24834;44.444;26.098;2024-01-15T21:34:56;98994.47;;;8.21;
39083;BME280;24834;44.444;26.098;2024-01-15T21:40:58;98978.28;;;8.19;
39083;BME280;24834;44.444;26.098;2024-01-15T21:47:02;98955.66;;;8.36;
39083;BME280;24834;44.444;26.098;2024-01-15T21:53:06;98968.22;;;8.26;
39083;BME280;24834;44.444;26.098;2024-01-15T21:59:10;98922.13;;;8.38;
39083;BME280;24834;44.444;26.098;2024-01-15T22:05:13;98906.13;;;8.71;
39083;BME280;24834;44.444;26.098;2024-01-15T22:11:16;98889.69;;;8.79;
39083;BME280;24834;44.444;26.098;2024-01-15T22:17:16;98919.47;;;8.61;
39083;BME280;24834;44.444;26.098;2024-01-15T22:23:19;98909.13;;;8.33;
39083;BME280;24834;44.444;26.098;2024-01-15T22:29:23;98909.94;;;8.20;
39083;BME280;24834;44.444;26.098;2024-01-15T22:35:26;98909.06;;;8.25;
39083;BME280;24834;44.444;26.098;2024-01-15T22:41:30;98922.59;;;8.05;
39083;BME280;24834;44.444;26.098;2024-01-15T22:47:32;98943.59;;;8.27;
39083;BME280;24834;44.444;26.098;2024-01-15T22:53:35;98950.13;;;8.16;
39083;BME280;24834;44.444;26.098;2024-01-15T22:59:37;98931.72;;;8.29;
39083;BME280;24834;44.444;26.098;2024-01-15T23:05:40;98915.69;;;8.22;
39083;BME280;24834;44.444;26.098;2024-01-15T23:11:46;98914.06;;;7.99;
39083;BME280;24834;44.444;26.098;2024-01-15T23:17:50;98913.25;;;7.90;
39083;BME280;24834;44.444;26.098;2024-01-15T23:23:53;98902.28;;;7.88;
39083;BME280;24834;44.444;26.098;2024-01-15T23:29:54;98916.38;;;7.65;
39083;BME280;24834;44.444;26.098;2024-01-15T23:35:57;98908.84;;;7.63;
39083;BME280;24834;44.444;26.098;2024-01-15T23:42:02;98912.19;;;7.77;
39083;BME280;24834;44.444;26.098;2024-01-15T23:48:07;98908.28;;;7.53;
39083;BME280;24834;44.444;26.098;2024-01-15T23:54:11;98918.53;;;7.49;
